Time;durP1;ratioP1;P1;durP2;ratioP2;P2;SDS_P1;SDS_P2;PMS_P1;PMS_P2;Temp;Humidity;BMP_temperature;BMP_pressure;BME280_temperature;BME280_humidity;BME280_pressure;Samples;Min_cycle;Max_cycle;Signal;HPM_P1;HPM_P2
2023/01/20 00:01:20;;;;;;;30.95;19.25;;;;;;;1.18;68.50;97973.03;5134619;27;20019;-48
2023/01/20 00:03:46;;;;;;;23.27;16.85;;;;;;;0.93;68.63;97972.19;5134591;27;20035;-48
2023/01/20 00:06:12;;;;;;;29.52;16.65;;;;;;;0.62;69.08;97969.31;5134529;27;20023;-47
2023/01/20 00:08:38;;;;;;;31.35;19.75;;;;;;;0.43;70.22;97980.69;5134526;27;20025;-47
2023/01/20 00:11:06;;;;;;;30.25;19.27;;;;;;;0.39;71.08;97991.28;5133084;27;20119;-48
2023/01/20 00:13:33;;;;;;;35.80;22.45;;;;;;;0.42;70.19;97987.59;5133868;27;20031;-47
2023/01/20 00:16:02;;;;;;;32.60;19.25;;;;;;;0.33;69.90;97994.47;5134293;27;20019;-48
2023/01/20 00:18:28;;;;;;;32.58;21.25;;;;;;;0.20;70.05;97996.66;5134307;27;20116;-48
2023/01/20 00:20:54;;;;;;;34.38;21.95;;;;;;;0.03;70.43;97993.16;5134222;27;20126;-48
2023/01/20 00:23:19;;;;;;;35.85;24.13;;;;;;;-0.06;70.86;98000.03;5133945;27;20502;-48
2023/01/20 00:25:45;;;;;;;36.08;28.33;;;;;;;-0.06;71.86;97994.88;5134082;27;20023;-48
2023/01/20 00:28:10;;;;;;;49.17;28.70;;;;;;;-0.26;72.17;97996.81;5134432;27;20046;-48
2023/01/20 00:30:36;;;;;;;38.13;25.75;;;;;;;-0.33;72.96;98011.25;5132795;27;20405;-48
2023/01/20 00:33:02;;;;;;;36.33;23.58;;;;;;;-0.28;72.96;98008.22;5134010;27;20434;-48
2023/01/20 00:35:27;;;;;;;37.25;26.73;;;;;;;-0.06;72.97;98007.78;5133970;27;20027;-47
2023/01/20 00:37:53;;;;;;;39.90;24.55;;;;;;;0.03;72.61;98005.25;5132577;27;20507;-48
2023/01/20 00:40:18;;;;;;;38.75;24.98;;;;;;;-0.03;72.64;98010.03;5132607;27;20015;-48
2023/01/20 00:42:44;;;;;;;33.58;24.90;;;;;;;-0.07;72.87;98013.06;5133845;27;20023;-48
2023/01/20 00:45:10;;;;;;;39.65;27.38;;;;;;;-0.10;72.77;98018.50;5133689;27;20019;-48
2023/01/20 00:47:36;;;;;;;40.75;25.75;;;;;;;-0.26;73.08;98017.44;5133742;27;20485;-48
2023/01/20 00:50:02;;;;;;;41.05;26.63;;;;;;;-0.32;73.93;98023.19;5133600;27;20035;-48
2023/01/20 00:52:27;;;;;;;28.98;19.50;;;;;;;-0.14;72.14;98022.34;5132307;27;20071;-48
2023/01/20 00:54:53;;;;;;;29.75;21.90;;;;;;;-0.02;71.55;98028.91;5133491;27;20027;-48
2023/01/20 00:57:19;;;;;;;32.25;21.85;;;;;;;0.05;71.95;98016.22;5133554;27;20051;-48
2023/01/20 00:59:44;;;;;;;31.63;20.17;;;;;;;0.26;71.94;98019.25;5132144;27;20023;-48
2023/01/20 01:02:10;;;;;;;25.75;17.65;;;;;;;0.37;70.39;98018.22;5132262;27;20430;-48
2023/01/20 01:04:35;;;;;;;31.08;22.48;;;;;;;0.34;69.67;98023.69;5133393;27;20087;-48
2023/01/20 01:07:01;;;;;;;26.95;20.45;;;;;;;0.26;70.28;98031.38;5133365;27;20027;-48
2023/01/20 01:09:27;;;;;;;55.22;39.38;;;;;;;0.23;70.92;98032.47;5132299;27;20023;-48
2023/01/20 01:11:52;;;;;;;31.85;22.85;;;;;;;0.28;69.45;98043.19;5133262;27;20055;-48
2023/01/20 01:14:21;;;;;;;34.50;24.88;;;;;;;0.30;70.78;98043.84;5131904;27;20027;-48
2023/01/20 01:16:46;;;;;;;27.65;18.67;;;;;;;0.42;71.13;98043.56;5133129;27;20069;-48
2023/01/20 01:19:12;;;;;;;26.00;18.08;;;;;;;0.48;69.72;98043.75;5132092;27;20505;-48
2023/01/20 01:21:38;;;;;;;29.30;20.25;;;;;;;0.44;69.73;98049.38;5133069;27;20023;-48
2023/01/20 01:24:03;;;;;;;31.52;19.70;;;;;;;0.53;70.57;98062.22;5131799;27;20063;-48
2023/01/20 01:26:29;;;;;;;31.42;20.63;;;;;;;0.38;70.24;98067.13;5133030;27;20011;-48
2023/01/20 01:28:54;;;;;;;30.55;18.05;;;;;;;0.31;71.28;98071.25;5131659;27;20053;-48
2023/01/20 01:31:23;;;;;;;32.08;21.80;;;;;;;0.37;71.41;98073.22;5132978;27;20019;-48
2023/01/20 01:33:48;;;;;;;31.25;18.15;;;;;;;0.45;71.29;98079.41;5132818;27;20034;-48
2023/01/20 01:36:16;;;;;;;28.92;19.73;;;;;;;0.40;69.99;98087.59;5131525;27;20015;-48
2023/01/20 01:38:42;;;;;;;33.55;20.73;;;;;;;0.31;70.04;98091.09;5132884;27;20027;-48
2023/01/20 01:41:11;;;;;;;24.35;17.02;;;;;;;0.37;69.64;98095.66;5132831;27;20497;-48
2023/01/20 01:43:38;;;;;;;24.33;16.05;;;;;;;0.42;69.74;98102.94;5132830;27;20047;-48
2023/01/20 01:46:04;;;;;;;28.02;18.50;;;;;;;0.48;70.08;98103.13;5132806;27;20082;-48
2023/01/20 01:48:35;;;;;;;28.90;17.02;;;;;;;0.58;70.22;98101.31;5114381;28;20497;-48
2023/01/20 01:51:06;;;;;;;28.95;19.40;;;;;;;0.60;68.83;98106.28;5132746;27;20031;-47
2023/01/20 01:53:38;;;;;;;28.52;19.55;;;;;;;0.66;69.76;98110.03;5132711;27;20031;-48
2023/01/20 01:56:04;;;;;;;65.93;52.85;;;;;;;0.52;69.82;98126.88;5131416;28;20435;-48
2023/01/20 01:58:34;;;;;;;45.17;35.38;;;;;;;0.66;70.50;98122.97;5132618;27;20496;-48
2023/01/20 02:01:00;;;;;;;34.33;26.77;;;;;;;0.86;69.63;98123.56;5132617;27;20576;-48
2023/01/20 02:03:43;;;;;;;27.20;20.40;;;;;;;1.04;70.10;98123.50;5132683;28;20102;-48
2023/01/20 02:06:10;;;;;;;28.17;19.75;;;;;;;1.03;69.28;98137.38;5132948;27;20400;-48
2023/01/20 02:08:36;;;;;;;24.95;17.52;;;;;;;1.14;69.45;98135.34;5131281;28;20512;-48
2023/01/20 02:11:02;;;;;;;32.88;19.17;;;;;;;1.38;69.29;98131.28;5131220;28;20031;-47
2023/01/20 02:13:28;;;;;;;28.23;18.35;;;;;;;1.65;69.15;98138.00;5132491;27;20072;-48
2023/01/20 02:16:03;;;;;;;27.27;18.23;;;;;;;1.77;68.50;98141.09;5132544;27;20362;-48
2023/01/20 02:18:42;;;;;;;28.43;16.90;;;;;;;1.91;68.82;98143.09;5132594;27;20027;-48
2023/01/20 02:21:15;;;;;;;23.48;18.00;;;;;;;2.20;68.25;98158.19;5132479;27;20265;-48
2023/01/20 02:23:55;;;;;;;26.52;17.70;;;;;;;2.27;67.16;98160.94;5132243;27;20077;-48
2023/01/20 02:26:30;;;;;;;26.48;16.98;;;;;;;2.12;67.16;98158.16;5132521;27;20099;-48
2023/01/20 02:29:10;;;;;;;28.17;18.85;;;;;;;2.11;67.23;98166.09;5132390;27;20050;-48
2023/01/20 02:32:10;;;;;;;24.45;17.35;;;;;;;2.08;67.70;98167.22;5131076;28;20023;-48
2023/01/20 02:34:45;;;;;;;29.83;18.05;;;;;;;2.01;67.19;98163.63;5132279;27;20019;-48
2023/01/20 02:37:45;;;;;;;25.92;18.80;;;;;;;2.01;67.55;98168.81;5136327;27;20027;-48
2023/01/20 02:40:23;;;;;;;24.83;17.45;;;;;;;1.95;67.20;98162.50;5134791;27;20107;-48
2023/01/20 02:43:12;;;;;;;24.02;17.27;;;;;;;1.90;67.30;98169.91;5136406;27;20419;-48
2023/01/20 02:46:40;;;;;;;29.75;18.73;;;;;;;1.94;67.28;98167.84;5134640;27;20023;-48
2023/01/20 02:49:08;;;;;;;26.23;17.15;;;;;;;1.91;66.72;98175.91;5047252;28;20202;-48
2023/01/20 02:51:43;;;;;;;30.50;19.33;;;;;;;1.76;66.85;98170.53;5052614;28;20025;-48
2023/01/20 02:54:13;;;;;;;28.55;18.50;;;;;;;1.66;67.29;98185.38;5069073;28;20461;-48
2023/01/20 02:56:39;;;;;;;30.75;17.77;;;;;;;1.68;67.44;98191.19;5035709;28;20029;-48
2023/01/20 02:59:12;;;;;;;24.00;17.15;;;;;;;1.74;67.75;98191.38;5052382;28;20032;-48
2023/01/20 03:01:54;;;;;;;21.15;16.35;;;;;;;1.96;67.50;98190.00;5052375;28;20517;-48
2023/01/20 03:04:26;;;;;;;21.13;16.20;;;;;;;2.04;67.84;98196.97;5052446;28;20025;-48
2023/01/20 03:06:55;;;;;;;23.58;15.20;;;;;;;2.15;68.25;98199.28;5052220;28;20462;-48
2023/01/20 03:09:29;;;;;;;26.05;19.27;;;;;;;2.23;66.93;98205.41;5035444;28;20040;-48
2023/01/20 03:12:03;;;;;;;25.45;16.63;;;;;;;1.92;66.50;98206.00;5052156;28;20037;-48
2023/01/20 03:14:29;;;;;;;23.17;17.17;;;;;;;1.68;66.79;98206.72;5052172;28;20032;-48
2023/01/20 03:16:55;;;;;;;30.40;18.13;;;;;;;1.66;67.66;98209.44;5052099;28;20021;-48
2023/01/20 03:19:21;;;;;;;26.25;18.63;;;;;;;1.57;67.14;98215.53;5078605;27;20390;-48
2023/01/20 03:21:47;;;;;;;27.20;19.13;;;;;;;1.32;67.42;98218.00;5134247;27;20066;-48
2023/01/20 03:24:13;;;;;;;24.42;16.45;;;;;;;1.20;67.85;98227.78;5133850;27;20430;-48
2023/01/20 03:26:38;;;;;;;24.20;16.40;;;;;;;1.22;68.09;98222.47;5133977;27;20075;-48
2023/01/20 03:29:06;;;;;;;24.65;16.67;;;;;;;1.22;68.11;98232.00;5134003;27;20577;-48
2023/01/20 03:31:37;;;;;;;30.48;18.58;;;;;;;1.07;67.94;98231.75;5135163;27;20026;-49
2023/01/20 03:34:09;;;;;;;21.90;16.33;;;;;;;0.99;68.60;98235.88;5135456;27;20388;-48
2023/01/20 03:36:36;;;;;;;21.90;17.42;;;;;;;1.05;69.34;98241.41;5135056;27;20038;-48
2023/01/20 03:39:03;;;;;;;20.13;15.10;;;;;;;1.10;69.16;98246.94;5135131;27;20027;-48
2023/01/20 03:41:40;;;;;;;24.58;17.20;;;;;;;1.17;69.58;98241.03;5135062;27;20016;-48
2023/01/20 03:44:17;;;;;;;22.58;16.10;;;;;;;1.11;69.28;98246.00;5135078;27;20031;-48
2023/01/20 03:47:16;;;;;;;25.48;17.27;;;;;;;1.14;69.67;98243.09;5134059;27;20034;-48
2023/01/20 03:50:08;;;;;;;18.27;14.35;;;;;;;0.94;68.95;98250.22;5102028;27;20039;-48
2023/01/20 03:52:56;;;;;;;26.25;15.85;;;;;;;0.92;69.58;98244.38;5133575;27;20019;-47
2023/01/20 03:55:42;;;;;;;26.98;16.65;;;;;;;0.97;70.26;98258.47;5134694;27;20031;-47
2023/01/20 03:58:11;;;;;;;26.20;17.92;;;;;;;1.06;70.26;98255.94;5134181;27;20043;-47
2023/01/20 04:00:42;;;;;;;25.35;16.73;;;;;;;1.21;70.08;98254.47;5134657;27;20031;-48
2023/01/20 04:03:15;;;;;;;22.13;16.58;;;;;;;1.18;69.16;98254.75;5134707;27;20023;-48
2023/01/20 04:05:42;;;;;;;23.95;17.08;;;;;;;1.12;69.50;98263.09;5134628;27;20050;-48
2023/01/20 04:08:10;;;;;;;31.88;19.35;;;;;;;1.12;69.48;98270.84;5133247;27;20076;-48
2023/01/20 04:10:39;;;;;;;21.67;16.25;;;;;;;1.13;69.94;98277.66;5134407;27;20030;-48
2023/01/20 04:13:04;;;;;;;21.88;16.77;;;;;;;1.31;70.14;98286.19;5133100;27;20027;-48
2023/01/20 04:15:43;;;;;;;25.13;14.50;;;;;;;1.46;69.88;98272.72;5134324;27;20023;-47
2023/01/20 04:18:16;;;;;;;25.13;13.40;;;;;;;1.63;69.70;98278.78;5134451;27;20117;-48
2023/01/20 04:20:45;;;;;;;18.60;13.30;;;;;;;1.83;69.94;98284.53;5134241;27;20023;-48
2023/01/20 04:23:34;;;;;;;19.30;12.55;;;;;;;2.07;69.67;98289.00;5134259;27;20047;-47
2023/01/20 04:26:00;;;;;;;19.48;13.40;;;;;;;2.28;69.27;98291.22;5134204;27;20031;-48
2023/01/20 04:28:26;;;;;;;20.45;14.02;;;;;;;2.39;69.01;98302.09;5132844;27;20019;-48
2023/01/20 04:30:51;;;;;;;16.73;13.45;;;;;;;2.44;69.15;98293.03;5133992;27;20047;-48
2023/01/20 04:33:17;;;;;;;17.38;13.45;;;;;;;2.36;68.27;98289.44;5132635;27;20064;-48
2023/01/20 04:35:43;;;;;;;20.95;13.35;;;;;;;2.07;68.60;98289.00;5132753;27;20020;-48
2023/01/20 04:38:08;;;;;;;18.77;13.60;;;;;;;1.98;69.25;98298.53;5132579;27;20027;-48
2023/01/20 04:40:34;;;;;;;18.63;13.05;;;;;;;1.98;69.83;98298.53;5132586;27;20027;-48
2023/01/20 04:43:00;;;;;;;18.23;12.45;;;;;;;2.09;69.53;98293.06;5133807;27;20034;-48
2023/01/20 04:45:25;;;;;;;21.00;12.13;;;;;;;1.97;68.51;98302.91;5132387;27;20125;-48
2023/01/20 04:47:51;;;;;;;17.90;12.10;;;;;;;1.76;68.34;98305.06;5132390;27;20531;-48
2023/01/20 04:50:17;;;;;;;21.52;13.73;;;;;;;1.51;68.47;98310.09;5133656;27;20456;-48
2023/01/20 04:52:43;;;;;;;20.20;12.70;;;;;;;1.43;69.34;98314.38;5133643;27;20023;-48
2023/01/20 04:55:09;;;;;;;14.98;11.02;;;;;;;1.46;69.40;98319.25;5133528;27;20036;-48
2023/01/20 04:57:35;;;;;;;17.92;11.23;;;;;;;1.52;68.96;98334.16;5133519;27;20106;-48
2023/01/20 05:00:00;;;;;;;16.35;11.13;;;;;;;1.60;68.92;98339.38;5132139;27;20293;-47
2023/01/20 05:02:26;;;;;;;17.23;11.00;;;;;;;1.68;68.72;98338.63;5133698;27;20027;-48
2023/01/20 05:04:52;;;;;;;15.30;11.13;;;;;;;1.78;68.66;98341.94;5132144;27;20031;-48
2023/01/20 05:07:17;;;;;;;20.85;11.52;;;;;;;1.87;68.23;98350.53;5133411;27;20062;-48
2023/01/20 05:09:43;;;;;;;15.73;10.15;;;;;;;1.85;68.35;98355.06;5131965;27;20438;-48
2023/01/20 05:12:09;;;;;;;17.13;11.32;;;;;;;1.73;68.00;98351.91;5133250;27;20020;-48
2023/01/20 05:14:34;;;;;;;16.92;11.43;;;;;;;1.59;67.83;98356.69;5131875;27;20027;-48
2023/01/20 05:17:00;;;;;;;20.80;12.27;;;;;;;1.60;68.78;98367.84;5133225;27;20023;-48
2023/01/20 05:19:26;;;;;;;21.17;12.98;;;;;;;1.55;68.61;98381.22;5133291;27;20050;-48
2023/01/20 05:21:51;;;;;;;19.08;11.32;;;;;;;1.50;68.16;98373.09;5133053;27;20027;-48
2023/01/20 05:24:17;;;;;;;17.88;12.02;;;;;;;1.38;67.96;98375.09;5132996;27;20062;-48
2023/01/20 05:26:42;;;;;;;16.15;13.05;;;;;;;1.08;68.36;98384.03;5133138;27;20019;-47
2023/01/20 05:29:08;;;;;;;17.35;12.93;;;;;;;0.87;69.38;98386.91;5131734;27;20435;-48
2023/01/20 05:31:36;;;;;;;20.60;12.82;;;;;;;1.03;70.17;98386.28;5132972;27;20027;-48
2023/01/20 05:34:02;;;;;;;19.85;11.95;;;;;;;1.16;70.27;98391.88;5114790;28;20063;-47
2023/01/20 05:36:28;;;;;;;16.23;12.25;;;;;;;1.24;70.01;98398.88;5133208;27;20094;-47
2023/01/20 05:38:54;;;;;;;18.17;12.75;;;;;;;1.06;69.17;98401.47;5132928;27;20103;-48
2023/01/20 05:41:22;;;;;;;22.55;12.50;;;;;;;1.00;69.69;98408.03;5131595;27;20489;-48
2023/01/20 05:43:52;;;;;;;19.55;13.00;;;;;;;1.08;70.18;98412.47;5133170;27;20027;-47
2023/01/20 05:46:17;;;;;;;19.83;12.77;;;;;;;1.11;70.28;98409.59;5132855;27;20011;-48
2023/01/20 05:48:43;;;;;;;16.85;12.45;;;;;;;1.00;70.09;98414.97;5132851;27;20502;-48
2023/01/20 05:51:08;;;;;;;18.38;13.50;;;;;;;0.84;70.60;98425.94;5132783;27;20076;-47
2023/01/20 05:53:34;;;;;;;18.90;14.88;;;;;;;0.79;70.86;98426.38;5132647;27;20029;-47
2023/01/20 05:56:01;;;;;;;19.52;12.48;;;;;;;0.83;70.51;98426.91;5132748;27;20043;-48
2023/01/20 05:58:27;;;;;;;32.50;15.38;;;;;;;0.79;70.87;98425.56;5132739;27;20149;-48
2023/01/20 06:00:53;;;;;;;26.27;12.90;;;;;;;0.81;71.38;98434.00;5131330;28;20034;-48
2023/01/20 06:03:18;;;;;;;22.55;12.85;;;;;;;0.98;71.47;98440.13;5132596;28;20098;-48
2023/01/20 06:05:44;;;;;;;25.50;14.48;;;;;;;1.15;72.02;98441.94;5132625;28;20083;-48
2023/01/20 06:08:10;;;;;;;20.73;13.35;;;;;;;1.30;71.85;98444.03;5132599;27;20034;-48
2023/01/20 06:10:35;;;;;;;20.75;13.43;;;;;;;1.47;71.77;98450.97;5132853;27;20062;-47
2023/01/20 06:13:01;;;;;;;19.73;13.15;;;;;;;1.39;70.72;98445.75;5135482;27;20034;-48
2023/01/20 06:15:26;;;;;;;19.42;12.40;;;;;;;1.44;70.77;98458.22;5136643;27;20015;-47
2023/01/20 06:17:54;;;;;;;19.25;12.90;;;;;;;1.53;71.04;98459.91;5135379;27;20023;-48
2023/01/20 06:20:20;;;;;;;18.20;12.30;;;;;;;1.74;70.80;98469.97;5136700;27;20068;-48
2023/01/20 06:22:45;;;;;;;18.98;11.65;;;;;;;1.99;70.24;98474.38;5134976;27;20531;-48
2023/01/20 06:25:11;;;;;;;21.25;13.10;;;;;;;2.15;69.96;98481.44;5136604;27;20078;-48
2023/01/20 06:27:37;;;;;;;17.15;12.43;;;;;;;2.25;68.39;98493.47;5136505;27;20051;-48
2023/01/20 06:30:04;;;;;;;21.38;12.50;;;;;;;2.01;67.54;98492.31;5136377;27;20530;-47
2023/01/20 06:32:30;;;;;;;17.73;12.63;;;;;;;1.95;68.04;98493.75;5136670;27;20031;-48
2023/01/20 06:34:56;;;;;;;30.30;14.23;;;;;;;1.94;68.15;98496.47;5136236;27;20520;-48
2023/01/20 06:37:21;;;;;;;29.15;15.38;;;;;;;1.99;67.97;98502.00;5136261;27;20102;-47
2023/01/20 06:39:47;;;;;;;18.08;12.70;;;;;;;1.74;67.30;98501.00;5136228;27;20019;-47
2023/01/20 06:42:13;;;;;;;27.20;12.63;;;;;;;1.60;67.69;98502.31;5136194;27;20024;-48
2023/01/20 06:44:38;;;;;;;23.58;14.90;;;;;;;1.68;68.47;98512.75;5134854;27;20442;-47
2023/01/20 06:47:04;;;;;;;21.13;14.13;;;;;;;1.71;68.19;98512.47;5134773;27;20027;-48
2023/01/20 06:49:30;;;;;;;22.40;13.68;;;;;;;1.74;67.80;98521.69;5136080;27;20026;-47
2023/01/20 06:51:55;;;;;;;25.75;16.65;;;;;;;1.76;67.53;98527.53;5134680;27;20062;-47
2023/01/20 06:54:21;;;;;;;27.98;17.08;;;;;;;1.56;66.88;98527.66;5135965;27;20030;-47
2023/01/20 06:56:46;;;;;;;25.98;17.73;;;;;;;1.22;67.32;98524.88;5135859;27;20023;-48
2023/01/20 06:59:12;;;;;;;26.60;17.80;;;;;;;0.94;67.33;98544.75;5135857;27;20015;-47
2023/01/20 07:01:39;;;;;;;24.45;15.82;;;;;;;0.95;68.84;98544.59;5136050;27;20028;-48
2023/01/20 07:04:05;;;;;;;36.40;17.63;;;;;;;1.28;68.96;98544.19;5135776;27;20065;-48
2023/01/20 07:06:39;;;;;;;24.27;15.18;;;;;;;1.44;67.54;98548.72;5135721;27;20023;-48
2023/01/20 07:09:07;;;;;;;23.98;16.08;;;;;;;1.46;67.72;98557.16;5134405;27;20053;-47
2023/01/20 07:11:36;;;;;;;19.58;14.18;;;;;;;1.52;67.99;98554.78;5135559;27;20027;-48
2023/01/20 07:14:03;;;;;;;22.77;15.50;;;;;;;1.57;66.90;98557.75;5135560;27;20019;-48
2023/01/20 07:16:29;;;;;;;29.15;17.20;;;;;;;1.56;67.47;98563.06;5135560;27;20058;-48
2023/01/20 07:18:54;;;;;;;24.67;14.52;;;;;;;1.74;67.85;98573.44;5135509;27;20058;-47
2023/01/20 07:21:20;;;;;;;27.75;16.13;;;;;;;1.77;66.99;98566.19;5133362;27;20019;-48
2023/01/20 07:23:46;;;;;;;19.42;13.98;;;;;;;1.91;67.34;98576.97;5133345;27;20101;-48
2023/01/20 07:26:15;;;;;;;26.70;15.88;;;;;;;1.93;66.27;98586.25;5134051;27;20496;-48
2023/01/20 07:28:41;;;;;;;36.90;20.30;;;;;;;1.77;65.91;98593.81;5133992;27;20516;-48
2023/01/20 07:31:10;;;;;;;28.08;15.65;;;;;;;1.61;65.96;98594.50;5135261;27;20019;-47
2023/01/20 07:33:36;;;;;;;22.88;13.40;;;;;;;1.68;66.55;98598.09;5135177;27;20023;-48
2023/01/20 07:36:02;;;;;;;22.50;14.70;;;;;;;1.85;66.58;98603.44;5135230;27;20019;-48
2023/01/20 07:38:28;;;;;;;25.02;16.17;;;;;;;2.35;66.73;98611.50;5135450;27;20430;-47
2023/01/20 07:41:03;;;;;;;18.52;15.45;;;;;;;2.91;65.03;98611.25;5135094;27;20508;-48
2023/01/20 07:43:29;;;;;;;20.58;15.75;;;;;;;3.29;64.91;98620.38;5135106;27;20023;-48
2023/01/20 07:46:00;;;;;;;26.98;14.18;;;;;;;4.08;64.54;98612.34;5133673;27;20020;-48
2023/01/20 07:48:28;;;;;;;27.58;15.00;;;;;;;5.06;63.21;98616.66;5135042;27;20023;-48
2023/01/20 07:51:00;;;;;;;21.35;15.50;;;;;;;5.97;61.05;98618.72;5133548;27;20019;-48
2023/01/20 07:53:37;;;;;;;16.50;11.50;;;;;;;6.68;59.61;98612.50;5133610;27;20054;-48
2023/01/20 07:56:09;;;;;;;22.42;13.10;;;;;;;7.06;57.93;98620.28;5133538;27;20031;-48
2023/01/20 07:58:35;;;;;;;21.35;12.20;;;;;;;7.53;57.01;98626.97;5133501;27;20077;-48
2023/01/20 08:01:36;;;;;;;15.00;9.73;;;;;;;7.63;55.55;98631.91;5134693;27;20035;-48
2023/01/20 08:04:03;;;;;;;18.23;9.93;;;;;;;7.63;53.55;98627.50;5087966;28;20035;-49
2023/01/20 08:06:29;;;;;;;11.50;9.18;;;;;;;7.85;52.36;98633.56;5054268;28;20024;-48
2023/01/20 08:08:55;;;;;;;18.95;9.65;;;;;;;7.93;52.15;98630.84;5054458;28;20028;-48
2023/01/20 08:11:21;;;;;;;10.60;8.45;;;;;;;8.45;50.67;98636.81;5071048;28;20094;-48
2023/01/20 08:13:48;;;;;;;14.07;8.93;;;;;;;8.31;48.99;98635.03;5070934;28;20028;-48
2023/01/20 08:16:16;;;;;;;16.02;10.02;;;;;;;7.76;48.62;98643.28;5070992;28;20136;-48
2023/01/20 08:18:42;;;;;;;14.73;9.85;;;;;;;7.12;49.77;98643.06;5054075;28;20058;-48
2023/01/20 08:21:17;;;;;;;24.08;10.70;;;;;;;6.28;50.15;98643.97;5054287;28;20534;-48
2023/01/20 08:23:43;;;;;;;22.60;10.52;;;;;;;5.70;52.69;98655.66;5070620;28;20053;-48
2023/01/20 08:26:08;;;;;;;17.45;10.05;;;;;;;5.33;53.18;98659.66;5070777;28;20101;-48
2023/01/20 08:28:35;;;;;;;24.98;11.73;;;;;;;4.99;53.82;98669.34;5070793;28;20143;-48
2023/01/20 08:31:12;;;;;;;17.40;10.52;;;;;;;4.63;54.49;98674.09;5070617;28;20101;-48
2023/01/20 08:33:41;;;;;;;15.60;10.30;;;;;;;4.47;55.21;98687.09;5053493;28;20025;-48
2023/01/20 08:36:10;;;;;;;27.75;11.52;;;;;;;4.25;56.02;98684.13;5070580;28;20078;-48
2023/01/20 08:38:36;;;;;;;34.83;11.00;;;;;;;4.07;56.83;98702.41;5111967;27;20031;-48
2023/01/20 08:41:13;;;;;;;26.13;10.15;;;;;;;4.04;57.63;98707.09;5133858;27;20027;-47
2023/01/20 08:43:38;;;;;;;21.67;10.90;;;;;;;4.32;57.64;98700.66;5132701;27;20035;-48
2023/01/20 08:46:10;;;;;;;21.42;10.23;;;;;;;4.53;56.99;98712.41;5133763;27;20030;-48
2023/01/20 08:48:37;;;;;;;18.92;11.20;;;;;;;4.66;56.95;98714.53;5133708;27;20101;-47
2023/01/20 08:51:06;;;;;;;15.30;10.45;;;;;;;4.52;56.86;98716.78;5132335;27;20028;-48
2023/01/20 08:53:32;;;;;;;18.38;10.15;;;;;;;4.43;57.73;98735.13;5133585;27;20027;-48
2023/01/20 08:56:00;;;;;;;19.17;11.18;;;;;;;4.59;57.11;98727.38;5132256;27;20019;-48
2023/01/20 08:58:26;;;;;;;22.40;10.50;;;;;;;4.52;57.30;98734.97;5133551;27;20015;-48
2023/01/20 09:00:53;;;;;;;15.63;10.10;;;;;;;4.63;57.24;98746.88;5133423;27;20059;-48
2023/01/20 09:03:19;;;;;;;22.00;10.57;;;;;;;4.75;57.40;98745.56;5133465;27;20051;-48
2023/01/20 09:05:45;;;;;;;20.75;11.25;;;;;;;4.56;56.57;98757.06;5133409;27;20373;-48
2023/01/20 09:08:11;;;;;;;18.85;9.27;;;;;;;4.37;56.67;98767.78;5132055;27;20027;-48
2023/01/20 09:10:36;;;;;;;17.80;9.75;;;;;;;4.50;57.31;98757.72;5166678;27;20035;-48
2023/01/20 09:13:02;;;;;;;16.55;9.80;;;;;;;4.86;57.17;98765.25;5133547;27;20106;-48
2023/01/20 09:15:27;;;;;;;19.27;9.18;;;;;;;5.32;56.14;98773.38;5133163;27;20023;-48
2023/01/20 09:17:53;;;;;;;15.18;8.25;;;;;;;5.44;54.65;98770.44;5133187;27;20080;-48
2023/01/20 09:20:19;;;;;;;15.43;7.90;;;;;;;5.27;54.08;98774.81;5133163;27;20102;-48
2023/01/20 09:22:44;;;;;;;14.95;8.38;;;;;;;5.19;54.79;98781.69;5132873;27;20092;-49
2023/01/20 09:25:10;;;;;;;11.65;8.27;;;;;;;5.51;54.76;98787.81;5133176;27;20023;-48
2023/01/20 09:27:36;;;;;;;12.05;6.90;;;;;;;6.65;55.11;98793.63;5131749;27;20541;-48
2023/01/20 09:30:03;;;;;;;8.50;7.40;;;;;;;8.47;53.26;98789.13;5131675;27;20084;-48
2023/01/20 09:32:28;;;;;;;18.48;9.45;;;;;;;9.86;49.06;98786.09;5133051;27;20084;-48
2023/01/20 09:34:55;;;;;;;11.02;7.65;;;;;;;10.40;46.43;98787.16;5132926;27;20485;-48
2023/01/20 09:46:26;;;;;;;8.73;7.15;;;;;;;8.26;46.73;98810.78;5132343;27;20056;-48
2023/01/20 09:55:20;;;;;;;10.45;8.02;;;;;;;7.80;47.16;98822.22;5132757;28;20119;-48
2023/01/20 09:57:58;;;;;;;23.20;8.75;;;;;;;7.51;47.81;98824.81;5132743;27;20023;-48
2023/01/20 10:00:27;;;;;;;15.50;7.72;;;;;;;7.22;47.48;98836.75;5132758;27;20377;-48
2023/01/20 10:03:09;;;;;;;11.90;7.53;;;;;;;7.06;48.17;98836.88;5132680;27;20015;-48
2023/01/20 10:05:38;;;;;;;27.73;12.00;;;;;;;6.97;48.39;98838.75;5132698;27;20027;-48
2023/01/20 10:08:19;;;;;;;14.02;8.82;;;;;;;6.95;48.44;98844.13;5132615;27;20527;-48
2023/01/20 10:10:53;;;;;;;20.00;12.93;;;;;;;7.04;48.59;98850.09;5131536;28;20407;-48
2023/01/20 10:13:31;;;;;;;23.05;15.48;;;;;;;6.81;48.28;98850.09;5132754;27;20023;-48
2023/01/20 10:16:03;;;;;;;18.00;7.78;;;;;;;6.88;48.52;98845.00;5131338;28;20027;-48
2023/01/20 10:19:13;;;;;;;19.95;8.10;;;;;;;7.05;47.77;98845.72;5131309;28;20100;-48
2023/01/20 10:21:53;;;;;;;15.43;8.02;;;;;;;7.27;48.56;98846.69;5086082;28;20394;-49
2023/01/20 10:24:30;;;;;;;13.50;7.40;;;;;;;7.49;48.24;98850.28;5052201;28;20465;-48
2023/01/20 10:27:02;;;;;;;8.70;6.55;;;;;;;8.00;47.24;98846.00;5069188;28;20602;-48
2023/01/20 10:29:37;;;;;;;14.48;7.95;;;;;;;8.36;46.68;98847.09;5052275;28;20407;-49
2023/01/20 10:32:11;;;;;;;19.75;7.18;;;;;;;8.93;45.80;98848.19;5069148;28;20033;-48
2023/01/20 10:34:45;;;;;;;17.00;8.27;;;;;;;9.19;44.80;98845.84;5052224;28;20024;-48
2023/01/20 10:37:11;;;;;;;14.15;7.32;;;;;;;9.16;45.13;98840.97;5069077;28;20060;-48
2023/01/20 10:39:43;;;;;;;9.75;6.85;;;;;;;9.25;44.56;98840.84;5069017;28;20037;-48
2023/01/20 10:42:17;;;;;;;13.05;7.18;;;;;;;9.23;43.87;98842.84;5052138;28;20127;-48
2023/01/20 10:44:43;;;;;;;10.73;6.95;;;;;;;9.30;44.51;98833.25;5052225;28;20024;-48
2023/01/20 10:47:15;;;;;;;12.52;8.27;;;;;;;9.26;43.67;98845.91;5068870;28;20450;-49
2023/01/20 10:50:08;;;;;;;13.50;7.60;;;;;;;9.04;44.89;98842.47;5052149;28;20031;-49
2023/01/20 10:52:49;;;;;;;14.07;8.57;;;;;;;9.16;44.71;98854.06;5104946;28;20031;-48
2023/01/20 10:55:50;;;;;;;11.30;7.45;;;;;;;8.99;44.90;98848.28;5130740;28;20024;-48
2023/01/20 10:58:50;;;;;;;11.48;6.68;;;;;;;8.98;44.50;98845.81;5134668;27;20027;-48
2023/01/20 11:01:20;;;;;;;13.00;7.38;;;;;;;8.63;45.46;98845.63;5135475;27;20100;-48
2023/01/20 11:03:47;;;;;;;17.00;7.97;;;;;;;9.22;45.18;98842.03;5136100;27;20441;-48
2023/01/20 11:06:16;;;;;;;15.85;8.45;;;;;;;9.82;45.28;98845.13;5134423;27;20172;-48
2023/01/20 11:08:42;;;;;;;14.57;9.10;;;;;;;9.98;44.94;98844.84;5134348;27;20027;-48
2023/01/20 11:11:15;;;;;;;19.35;10.25;;;;;;;9.99;44.72;98846.44;5135689;27;20023;-49
2023/01/20 11:13:41;;;;;;;12.90;8.90;;;;;;;10.08;44.29;98849.75;5134298;27;20069;-48
2023/01/20 11:16:24;;;;;;;13.10;10.02;;;;;;;10.04;44.08;98845.88;5135615;27;20103;-48
2023/01/20 11:19:05;;;;;;;12.60;10.32;;;;;;;10.19;44.52;98851.81;5134339;27;20085;-48
2023/01/20 11:21:35;;;;;;;13.18;9.15;;;;;;;10.13;44.17;98836.03;5135528;27;20056;-48
2023/01/20 11:24:03;;;;;;;15.93;9.90;;;;;;;10.07;43.57;98837.63;5135349;27;20508;-48
2023/01/20 11:26:35;;;;;;;12.50;9.70;;;;;;;9.96;44.13;98830.28;5135419;27;20027;-48
2023/01/20 11:29:10;;;;;;;17.05;9.50;;;;;;;9.56;44.66;98840.50;5135405;27;20023;-48
2023/01/20 11:31:41;;;;;;;11.83;9.27;;;;;;;9.17;44.75;98842.56;5135356;27;20541;-48
2023/01/20 11:34:47;;;;;;;15.68;9.35;;;;;;;8.93;45.98;98848.19;5135237;27;20276;-48
2023/01/20 11:37:19;;;;;;;14.60;10.25;;;;;;;9.07;46.61;98844.69;5135170;27;20018;-49
2023/01/20 11:39:59;;;;;;;22.50;10.57;;;;;;;9.02;46.80;98844.47;5135144;27;20031;-48
2023/01/20 11:42:42;;;;;;;14.55;8.98;;;;;;;8.97;46.79;98838.97;5135140;27;20109;-49
2023/01/20 11:45:29;;;;;;;15.30;9.98;;;;;;;8.91;46.72;98844.94;5133712;27;20458;-48
2023/01/20 11:48:13;;;;;;;19.10;10.50;;;;;;;9.02;47.69;98851.50;5135080;27;20026;-48
2023/01/20 11:50:44;;;;;;;11.45;9.70;;;;;;;9.24;47.11;98850.50;5134901;27;20023;-48
2023/01/20 11:53:17;;;;;;;16.92;11.52;;;;;;;9.25;46.51;98846.88;5133607;27;20408;-48
2023/01/20 11:55:49;;;;;;;13.30;9.77;;;;;;;9.32;46.93;98849.59;5133538;27;20055;-49